createdAt,value
2024-02-13T00:00:11.000Z,5.599999904632568
2024-02-13T00:00:30.000Z,5.599999904632568
2024-02-13T00:00:50.000Z,5.599999904632568
2024-02-13T00:01:30.000Z,5.599999904632568
2024-02-13T00:01:50.000Z,5.599999904632568
2024-02-13T00:02:10.000Z,5.599999904632568
2024-02-13T00:02:30.000Z,5.599999904632568
2024-02-13T00:02:50.000Z,5.599999904632568
2024-02-13T00:03:10.000Z,5.599999904632568
2024-02-13T00:03:30.000Z,5.599999904632568
2024-02-13T00:03:51.000Z,5.599999904632568
2024-02-13T00:04:11.000Z,5.599999904632568
2024-02-13T00:04:31.000Z,5.599999904632568
2024-02-13T00:04:51.000Z,5.599999904632568
2024-02-13T00:05:11.000Z,5.599999904632568
2024-02-13T00:05:31.000Z,5.599999904632568
2024-02-13T00:05:51.000Z,5.599999904632568
2024-02-13T00:06:11.000Z,5.599999904632568
2024-02-13T00:06:30.000Z,5.599999904632568
2024-02-13T00:06:50.000Z,5.599999904632568
2024-02-13T00:07:11.000Z,5.599999904632568
2024-02-13T00:07:30.000Z,5.599999904632568
2024-02-13T00:07:50.000Z,5.599999904632568
2024-02-13T00:08:11.000Z,5.599999904632568
2024-02-13T00:08:30.000Z,5.599999904632568
2024-02-13T00:08:50.000Z,5.599999904632568
2024-02-13T00:09:10.000Z,5.599999904632568
2024-02-13T00:09:30.000Z,5.599999904632568
2024-02-13T00:09:50.000Z,5.599999904632568
2024-02-13T00:10:11.000Z,5.599999904632568
2024-02-13T00:10:31.000Z,5.599999904632568
2024-02-13T00:10:51.000Z,5.599999904632568
2024-02-13T00:11:11.000Z,5.599999904632568
2024-02-13T00:11:31.000Z,5.599999904632568
2024-02-13T00:11:51.000Z,5.699999809265137
2024-02-13T00:12:11.000Z,5.599999904632568
2024-02-13T00:12:30.000Z,5.699999809265137
2024-02-13T00:12:50.000Z,5.599999904632568
2024-02-13T00:13:11.000Z,5.599999904632568
2024-02-13T00:13:30.000Z,5.699999809265137
2024-02-13T00:13:50.000Z,5.599999904632568
2024-02-13T00:14:11.000Z,5.599999904632568
2024-02-13T00:14:30.000Z,5.699999809265137
2024-02-13T00:14:50.000Z,5.599999904632568
2024-02-13T00:15:11.000Z,5.599999904632568
2024-02-13T00:15:30.000Z,5.599999904632568
2024-02-13T00:15:50.000Z,5.599999904632568
2024-02-13T00:16:10.000Z,5.599999904632568
2024-02-13T00:16:31.000Z,5.599999904632568
2024-02-13T00:16:51.000Z,5.599999904632568
2024-02-13T00:17:11.000Z,5.599999904632568
2024-02-13T00:17:31.000Z,5.599999904632568
2024-02-13T00:17:51.000Z,5.599999904632568
2024-02-13T00:18:11.000Z,5.599999904632568
2024-02-13T00:18:31.000Z,5.599999904632568
2024-02-13T00:18:50.000Z,5.599999904632568
2024-02-13T00:19:11.000Z,5.5
2024-02-13T00:19:30.000Z,5.599999904632568
2024-02-13T00:19:50.000Z,5.599999904632568
2024-02-13T00:20:11.000Z,5.5
2024-02-13T00:20:30.000Z,5.5
2024-02-13T00:20:50.000Z,5.5
2024-02-13T00:21:30.000Z,5.5
2024-02-13T00:21:50.000Z,5.5
2024-02-13T00:22:10.000Z,5.5
2024-02-13T00:22:30.000Z,5.5
2024-02-13T00:22:51.000Z,5.5
2024-02-13T00:23:11.000Z,5.5
2024-02-13T00:23:31.000Z,5.5
2024-02-13T00:23:51.000Z,5.5
2024-02-13T00:24:11.000Z,5.5
2024-02-13T00:24:31.000Z,5.5
2024-02-13T00:24:51.000Z,5.5
2024-02-13T00:25:11.000Z,5.5
2024-02-13T00:25:30.000Z,5.5
2024-02-13T00:25:50.000Z,5.5
2024-02-13T00:26:11.000Z,5.5
2024-02-13T00:26:30.000Z,5.5
2024-02-13T00:26:50.000Z,5.5
2024-02-13T00:27:10.000Z,5.5
2024-02-13T00:27:30.000Z,5.5
2024-02-13T00:27:50.000Z,5.5
2024-02-13T00:28:10.000Z,5.5
2024-02-13T00:28:30.000Z,5.5
2024-02-13T00:28:50.000Z,5.5
2024-02-13T00:29:11.000Z,5.5
2024-02-13T00:29:31.000Z,5.5
2024-02-13T00:29:51.000Z,5.5
2024-02-13T00:30:11.000Z,5.5
2024-02-13T00:30:31.000Z,5.5
2024-02-13T00:30:51.000Z,5.5
2024-02-13T00:31:11.000Z,5.5
2024-02-13T00:31:30.000Z,5.5
2024-02-13T00:31:50.000Z,5.5
2024-02-13T00:32:11.000Z,5.5
2024-02-13T00:32:30.000Z,5.5
2024-02-13T00:32:50.000Z,5.5
2024-02-13T00:33:11.000Z,5.400000095367432
2024-02-13T00:33:30.000Z,5.400000095367432
2024-02-13T00:33:50.000Z,5.400000095367432
2024-02-13T00:34:10.000Z,5.400000095367432
2024-02-13T00:34:30.000Z,5.400000095367432
2024-02-13T00:34:50.000Z,5.400000095367432
2024-02-13T00:35:11.000Z,5.300000190734863
2024-02-13T00:35:31.000Z,5.300000190734863
2024-02-13T00:35:51.000Z,5.300000190734863
2024-02-13T00:36:31.000Z,5.300000190734863
2024-02-13T00:36:51.000Z,5.300000190734863
2024-02-13T00:37:11.000Z,5.300000190734863
2024-02-13T00:37:31.000Z,5.300000190734863
2024-02-13T00:37:50.000Z,5.300000190734863
2024-02-13T00:38:11.000Z,5.300000190734863
2024-02-13T00:38:30.000Z,5.300000190734863
2024-02-13T00:38:50.000Z,5.300000190734863
2024-02-13T00:39:11.000Z,5.300000190734863
2024-02-13T00:39:30.000Z,5.300000190734863
2024-02-13T00:39:50.000Z,5.300000190734863
2024-02-13T00:40:11.000Z,5.300000190734863
2024-02-13T00:40:30.000Z,5.300000190734863
2024-02-13T00:40:50.000Z,5.300000190734863
2024-02-13T00:41:30.000Z,5.300000190734863
2024-02-13T00:41:51.000Z,5.300000190734863
2024-02-13T00:42:11.000Z,5.300000190734863
2024-02-13T00:42:31.000Z,5.300000190734863
2024-02-13T00:42:51.000Z,5.300000190734863
2024-02-13T00:43:11.000Z,5.300000190734863
2024-02-13T00:43:31.000Z,5.300000190734863
2024-02-13T00:43:51.000Z,5.300000190734863
2024-02-13T00:44:11.000Z,5.300000190734863
2024-02-13T00:44:30.000Z,5.300000190734863
2024-02-13T00:44:50.000Z,5.300000190734863
2024-02-13T00:45:11.000Z,5.300000190734863
2024-02-13T00:45:30.000Z,5.300000190734863
2024-02-13T00:45:50.000Z,5.300000190734863
2024-02-13T00:46:10.000Z,5.300000190734863
2024-02-13T00:46:30.000Z,5.300000190734863
2024-02-13T00:46:50.000Z,5.300000190734863
2024-02-13T00:47:10.000Z,5.300000190734863
2024-02-13T00:47:30.000Z,5.300000190734863
2024-02-13T00:47:50.000Z,5.300000190734863
2024-02-13T00:48:12.000Z,5.300000190734863
2024-02-13T00:48:31.000Z,5.300000190734863
2024-02-13T00:48:51.000Z,5.300000190734863
2024-02-13T00:49:31.000Z,5.300000190734863
2024-02-13T00:49:51.000Z,5.300000190734863
2024-02-13T00:50:11.000Z,5.300000190734863
2024-02-13T00:50:31.000Z,5.300000190734863
2024-02-13T00:50:50.000Z,5.300000190734863
2024-02-13T00:51:30.000Z,5.300000190734863
2024-02-13T00:51:50.000Z,5.300000190734863
2024-02-13T00:52:11.000Z,5.300000190734863
2024-02-13T00:52:30.000Z,5.300000190734863
2024-02-13T00:52:50.000Z,5.300000190734863
2024-02-13T00:53:10.000Z,5.300000190734863
2024-02-13T00:53:30.000Z,5.300000190734863
2024-02-13T00:53:50.000Z,5.300000190734863
2024-02-13T00:54:10.000Z,5.300000190734863
2024-02-13T00:54:30.000Z,5.300000190734863
2024-02-13T00:54:51.000Z,5.300000190734863
2024-02-13T00:55:11.000Z,5.300000190734863
2024-02-13T00:55:31.000Z,5.300000190734863
2024-02-13T00:55:51.000Z,5.300000190734863
2024-02-13T00:56:11.000Z,5.300000190734863
2024-02-13T00:56:31.000Z,5.300000190734863
2024-02-13T00:56:51.000Z,5.300000190734863
2024-02-13T00:57:11.000Z,5.300000190734863
2024-02-13T00:57:30.000Z,5.300000190734863
2024-02-13T00:57:50.000Z,5.300000190734863
2024-02-13T00:58:11.000Z,5.300000190734863
2024-02-13T00:58:30.000Z,5.300000190734863
2024-02-13T00:58:50.000Z,5.300000190734863
2024-02-13T00:59:11.000Z,5.300000190734863
2024-02-13T00:59:30.000Z,5.300000190734863
2024-02-13T00:59:50.000Z,5.400000095367432
2024-02-13T01:00:12.000Z,5.400000095367432
2024-02-13T01:00:30.000Z,5.400000095367432
2024-02-13T01:00:50.000Z,5.400000095367432
2024-02-13T01:01:31.000Z,5.400000095367432
2024-02-13T01:01:51.000Z,5.400000095367432
2024-02-13T01:02:11.000Z,5.400000095367432
2024-02-13T01:02:31.000Z,5.400000095367432
2024-02-13T01:02:51.000Z,5.400000095367432
2024-02-13T01:03:11.000Z,5.400000095367432
2024-02-13T01:03:30.000Z,5.400000095367432
2024-02-13T01:03:50.000Z,5.400000095367432
2024-02-13T01:04:11.000Z,5.400000095367432
2024-02-13T01:04:30.000Z,5.400000095367432
2024-02-13T01:04:50.000Z,5.400000095367432
2024-02-13T01:05:11.000Z,5.400000095367432
2024-02-13T01:05:30.000Z,5.400000095367432
2024-02-13T01:05:50.000Z,5.400000095367432
2024-02-13T01:06:11.000Z,5.400000095367432
2024-02-13T01:06:30.000Z,5.400000095367432
2024-02-13T01:06:50.000Z,5.400000095367432
2024-02-13T01:07:10.000Z,5.400000095367432
2024-02-13T01:07:31.000Z,5.300000190734863
2024-02-13T01:07:51.000Z,5.400000095367432
2024-02-13T01:08:11.000Z,5.300000190734863
2024-02-13T01:08:31.000Z,5.300000190734863
2024-02-13T01:08:51.000Z,5.300000190734863
2024-02-13T01:09:11.000Z,5.300000190734863
2024-02-13T01:09:31.000Z,5.300000190734863
2024-02-13T01:09:50.000Z,5.300000190734863
2024-02-13T01:10:11.000Z,5.300000190734863
2024-02-13T01:10:30.000Z,5.300000190734863
2024-02-13T01:10:50.000Z,5.300000190734863
2024-02-13T01:11:11.000Z,5.300000190734863
2024-02-13T01:11:30.000Z,5.300000190734863
2024-02-13T01:11:50.000Z,5.300000190734863
2024-02-13T01:12:10.000Z,5.300000190734863
2024-02-13T01:12:30.000Z,5.300000190734863
2024-02-13T01:12:50.000Z,5.300000190734863
2024-02-13T01:13:10.000Z,5.300000190734863
2024-02-13T01:13:30.000Z,5.300000190734863
2024-02-13T01:13:51.000Z,5.300000190734863
2024-02-13T01:14:11.000Z,5.300000190734863
2024-02-13T01:14:31.000Z,5.300000190734863
2024-02-13T01:14:51.000Z,5.300000190734863
2024-02-13T01:15:11.000Z,5.300000190734863
2024-02-13T01:15:31.000Z,5.300000190734863
2024-02-13T01:15:51.000Z,5.300000190734863
2024-02-13T01:16:11.000Z,5.300000190734863
2024-02-13T01:16:30.000Z,5.300000190734863
2024-02-13T01:16:50.000Z,5.300000190734863
2024-02-13T01:17:11.000Z,5.300000190734863
2024-02-13T01:17:30.000Z,5.199999809265137
2024-02-13T01:17:50.000Z,5.199999809265137
2024-02-13T01:18:11.000Z,5.199999809265137
2024-02-13T01:18:30.000Z,5.199999809265137
2024-02-13T01:18:50.000Z,5.199999809265137
2024-02-13T01:19:10.000Z,5.199999809265137
2024-02-13T01:19:30.000Z,5.199999809265137
2024-02-13T01:19:50.000Z,5.199999809265137
2024-02-13T01:20:11.000Z,5.199999809265137
2024-02-13T01:20:31.000Z,5.099999904632568
2024-02-13T01:20:51.000Z,5.099999904632568
2024-02-13T01:21:11.000Z,5.099999904632568
2024-02-13T01:21:31.000Z,5.099999904632568
2024-02-13T01:21:51.000Z,5.099999904632568
2024-02-13T01:22:11.000Z,5.099999904632568
2024-02-13T01:22:31.000Z,5.099999904632568
2024-02-13T01:22:50.000Z,5.099999904632568
2024-02-13T01:23:11.000Z,5.099999904632568
2024-02-13T01:23:30.000Z,5.099999904632568
2024-02-13T01:23:50.000Z,5.099999904632568
2024-02-13T01:24:11.000Z,5.099999904632568
2024-02-13T01:24:30.000Z,5.099999904632568
2024-02-13T01:24:50.000Z,5.099999904632568
2024-02-13T01:25:10.000Z,5.099999904632568
2024-02-13T01:25:30.000Z,5.099999904632568
2024-02-13T01:25:50.000Z,5.099999904632568
2024-02-13T01:26:10.000Z,5.099999904632568
2024-02-13T01:26:31.000Z,5.099999904632568
2024-02-13T01:26:51.000Z,5.0
2024-02-13T01:27:11.000Z,5.0
2024-02-13T01:27:31.000Z,5.0
2024-02-13T01:27:51.000Z,5.099999904632568
2024-02-13T01:28:11.000Z,5.0
2024-02-13T01:28:31.000Z,5.099999904632568
2024-02-13T01:28:51.000Z,5.099999904632568
2024-02-13T01:29:11.000Z,5.099999904632568
2024-02-13T01:29:30.000Z,5.099999904632568
2024-02-13T01:29:50.000Z,5.099999904632568
2024-02-13T01:30:11.000Z,5.099999904632568
2024-02-13T01:30:30.000Z,5.099999904632568
2024-02-13T01:30:50.000Z,5.099999904632568
2024-02-13T01:31:10.000Z,5.099999904632568
2024-02-13T01:31:30.000Z,5.099999904632568
2024-02-13T01:31:50.000Z,5.0
2024-02-13T01:32:10.000Z,5.099999904632568
2024-02-13T01:32:30.000Z,5.0
2024-02-13T01:32:50.000Z,5.0
2024-02-13T01:33:12.000Z,5.099999904632568
2024-02-13T01:33:31.000Z,5.099999904632568
2024-02-13T01:33:51.000Z,5.099999904632568
2024-02-13T01:34:11.000Z,5.099999904632568
2024-02-13T01:34:31.000Z,5.099999904632568
2024-02-13T01:34:51.000Z,5.0
2024-02-13T01:35:11.000Z,5.0
2024-02-13T01:35:30.000Z,5.0
2024-02-13T01:35:50.000Z,5.0
2024-02-13T01:36:11.000Z,5.0
2024-02-13T01:36:30.000Z,5.0
2024-02-13T01:36:50.000Z,5.0
2024-02-13T01:37:11.000Z,5.0
2024-02-13T01:37:30.000Z,5.0
2024-02-13T01:37:50.000Z,5.0
2024-02-13T01:38:10.000Z,4.900000095367432
2024-02-13T01:38:30.000Z,5.0
2024-02-13T01:38:50.000Z,4.900000095367432
2024-02-13T01:39:10.000Z,4.900000095367432
2024-02-13T01:39:31.000Z,4.900000095367432
2024-02-13T01:39:51.000Z,4.900000095367432
2024-02-13T01:40:11.000Z,4.900000095367432
2024-02-13T01:40:31.000Z,4.900000095367432
2024-02-13T01:40:51.000Z,4.900000095367432
2024-02-13T01:41:11.000Z,4.900000095367432
2024-02-13T01:41:31.000Z,4.900000095367432
2024-02-13T01:41:51.000Z,4.900000095367432
2024-02-13T01:42:11.000Z,4.900000095367432
2024-02-13T01:42:30.000Z,4.900000095367432
2024-02-13T01:42:50.000Z,4.900000095367432
2024-02-13T01:43:11.000Z,5.0
2024-02-13T01:43:30.000Z,5.0
2024-02-13T01:43:50.000Z,5.0
2024-02-13T01:44:11.000Z,5.0
2024-02-13T01:44:30.000Z,5.0
2024-02-13T01:44:50.000Z,4.900000095367432
2024-02-13T01:45:30.000Z,5.0
2024-02-13T01:45:50.000Z,5.0
2024-02-13T01:46:11.000Z,4.900000095367432
2024-02-13T01:46:31.000Z,5.0
2024-02-13T01:46:51.000Z,5.0
2024-02-13T01:47:11.000Z,4.900000095367432
2024-02-13T01:47:31.000Z,4.900000095367432
2024-02-13T01:47:51.000Z,5.0
2024-02-13T01:48:12.000Z,5.0
2024-02-13T01:48:30.000Z,5.0
2024-02-13T01:48:50.000Z,5.0
2024-02-13T01:49:30.000Z,5.0
2024-02-13T01:49:50.000Z,5.0
2024-02-13T01:50:11.000Z,5.0
2024-02-13T01:50:30.000Z,5.0
2024-02-13T01:50:50.000Z,5.0
2024-02-13T01:51:10.000Z,5.0
2024-02-13T01:51:30.000Z,5.0
2024-02-13T01:51:50.000Z,5.0
2024-02-13T01:52:10.000Z,5.0
2024-02-13T01:52:31.000Z,5.0
2024-02-13T01:52:51.000Z,5.0
2024-02-13T01:53:11.000Z,5.0
2024-02-13T01:53:31.000Z,5.0
2024-02-13T01:53:51.000Z,5.0
2024-02-13T01:54:11.000Z,5.0
2024-02-13T01:54:31.000Z,5.0
2024-02-13T01:54:51.000Z,5.0
2024-02-13T01:55:11.000Z,5.0
2024-02-13T01:55:30.000Z,5.0
2024-02-13T01:55:50.000Z,5.0
2024-02-13T01:56:11.000Z,5.0
2024-02-13T01:56:30.000Z,5.0
2024-02-13T01:56:50.000Z,5.0
2024-02-13T01:57:10.000Z,4.900000095367432
2024-02-13T01:57:30.000Z,4.900000095367432
2024-02-13T01:57:50.000Z,5.0
2024-02-13T01:58:10.000Z,4.900000095367432
2024-02-13T01:58:30.000Z,4.900000095367432
2024-02-13T01:58:50.000Z,4.900000095367432
2024-02-13T01:59:11.000Z,4.900000095367432
2024-02-13T01:59:31.000Z,5.0
2024-02-13T01:59:51.000Z,4.900000095367432
2024-02-13T02:00:11.000Z,4.900000095367432
2024-02-13T02:00:31.000Z,5.0
2024-02-13T02:00:51.000Z,4.900000095367432
2024-02-13T02:01:11.000Z,4.900000095367432
2024-02-13T02:01:30.000Z,4.900000095367432
2024-02-13T02:01:50.000Z,4.900000095367432
2024-02-13T02:02:11.000Z,4.900000095367432
2024-02-13T02:02:30.000Z,4.900000095367432
2024-02-13T02:02:50.000Z,4.900000095367432
2024-02-13T02:03:10.000Z,4.900000095367432
2024-02-13T02:03:30.000Z,4.800000190734863
2024-02-13T02:03:50.000Z,4.800000190734863
2024-02-13T02:04:11.000Z,4.800000190734863
2024-02-13T02:04:30.000Z,4.800000190734863
2024-02-13T02:04:50.000Z,4.800000190734863
2024-02-13T02:05:10.000Z,4.800000190734863
2024-02-13T02:05:30.000Z,4.800000190734863
2024-02-13T02:05:51.000Z,4.800000190734863
2024-02-13T02:06:12.000Z,4.800000190734863
2024-02-13T02:06:31.000Z,4.800000190734863
2024-02-13T02:06:51.000Z,4.800000190734863
2024-02-13T02:07:31.000Z,4.800000190734863
2024-02-13T02:07:51.000Z,4.800000190734863
2024-02-13T02:08:11.000Z,4.800000190734863
2024-02-13T02:08:30.000Z,4.800000190734863
2024-02-13T02:08:50.000Z,4.800000190734863
2024-02-13T02:09:11.000Z,4.800000190734863
2024-02-13T02:09:30.000Z,4.800000190734863
2024-02-13T02:09:50.000Z,4.800000190734863
2024-02-13T02:10:10.000Z,4.699999809265137
2024-02-13T02:10:30.000Z,4.699999809265137
2024-02-13T02:10:50.000Z,4.800000190734863
2024-02-13T02:11:10.000Z,4.699999809265137
2024-02-13T02:11:30.000Z,4.699999809265137
2024-02-13T02:11:50.000Z,4.699999809265137
2024-02-13T02:12:11.000Z,4.699999809265137
2024-02-13T02:12:31.000Z,4.699999809265137
2024-02-13T02:12:51.000Z,4.699999809265137
2024-02-13T02:13:11.000Z,4.699999809265137
2024-02-13T02:13:31.000Z,4.699999809265137
2024-02-13T02:13:51.000Z,4.699999809265137
2024-02-13T02:14:11.000Z,4.699999809265137
2024-02-13T02:14:31.000Z,4.699999809265137
2024-02-13T02:14:50.000Z,4.699999809265137
2024-02-13T02:15:11.000Z,4.699999809265137
2024-02-13T02:15:30.000Z,4.699999809265137
2024-02-13T02:15:50.000Z,4.699999809265137
2024-02-13T02:16:11.000Z,4.699999809265137
2024-02-13T02:16:30.000Z,4.699999809265137
2024-02-13T02:16:50.000Z,4.699999809265137
2024-02-13T02:17:11.000Z,4.699999809265137
2024-02-13T02:17:30.000Z,4.699999809265137
2024-02-13T02:17:50.000Z,4.699999809265137
2024-02-13T02:18:11.000Z,4.699999809265137
2024-02-13T02:18:30.000Z,4.699999809265137
2024-02-13T02:18:51.000Z,4.699999809265137
2024-02-13T02:19:11.000Z,4.699999809265137
2024-02-13T02:19:31.000Z,4.699999809265137
2024-02-13T02:19:51.000Z,4.699999809265137
2024-02-13T02:20:11.000Z,4.699999809265137
2024-02-13T02:20:31.000Z,4.800000190734863
2024-02-13T02:20:51.000Z,4.699999809265137
2024-02-13T02:21:11.000Z,4.699999809265137
2024-02-13T02:21:30.000Z,4.699999809265137
2024-02-13T02:21:50.000Z,4.800000190734863
2024-02-13T02:22:11.000Z,4.800000190734863
2024-02-13T02:22:30.000Z,4.800000190734863
2024-02-13T02:22:50.000Z,4.800000190734863
2024-02-13T02:23:11.000Z,4.800000190734863
2024-02-13T02:23:30.000Z,4.800000190734863
2024-02-13T02:23:50.000Z,4.800000190734863
2024-02-13T02:24:10.000Z,4.800000190734863
2024-02-13T02:24:30.000Z,4.800000190734863
2024-02-13T02:24:50.000Z,4.800000190734863
2024-02-13T02:25:11.000Z,4.800000190734863
2024-02-13T02:25:31.000Z,4.800000190734863
2024-02-13T02:25:51.000Z,4.800000190734863
2024-02-13T02:26:11.000Z,4.800000190734863
2024-02-13T02:26:31.000Z,4.800000190734863
2024-02-13T02:26:51.000Z,4.800000190734863
2024-02-13T02:27:11.000Z,4.800000190734863
2024-02-13T02:27:31.000Z,4.800000190734863
2024-02-13T02:27:50.000Z,4.800000190734863
2024-02-13T02:28:11.000Z,4.800000190734863
2024-02-13T02:28:30.000Z,4.800000190734863
2024-02-13T02:28:50.000Z,4.800000190734863
2024-02-13T02:29:11.000Z,4.900000095367432
2024-02-13T02:29:30.000Z,4.900000095367432
2024-02-13T02:29:50.000Z,4.900000095367432
2024-02-13T02:30:10.000Z,4.800000190734863
2024-02-13T02:30:30.000Z,4.800000190734863
2024-02-13T02:30:50.000Z,4.800000190734863
2024-02-13T02:31:10.000Z,4.800000190734863
2024-02-13T02:31:30.000Z,4.800000190734863
2024-02-13T02:31:51.000Z,4.800000190734863
2024-02-13T02:32:11.000Z,4.800000190734863
2024-02-13T02:32:31.000Z,4.699999809265137
2024-02-13T02:32:51.000Z,4.699999809265137
2024-02-13T02:33:11.000Z,4.699999809265137
2024-02-13T02:33:31.000Z,4.800000190734863
2024-02-13T02:33:51.000Z,4.699999809265137
2024-02-13T02:34:11.000Z,4.800000190734863
2024-02-13T02:34:30.000Z,4.800000190734863
2024-02-13T02:34:50.000Z,4.800000190734863
2024-02-13T02:35:11.000Z,4.800000190734863
2024-02-13T02:35:30.000Z,4.800000190734863
2024-02-13T02:35:50.000Z,4.800000190734863
2024-02-13T02:36:10.000Z,4.800000190734863
2024-02-13T02:36:30.000Z,4.800000190734863
2024-02-13T02:36:50.000Z,4.800000190734863
2024-02-13T02:37:10.000Z,4.800000190734863
2024-02-13T02:37:30.000Z,4.800000190734863
2024-02-13T02:37:50.000Z,4.800000190734863
2024-02-13T02:38:12.000Z,4.800000190734863
2024-02-13T02:38:31.000Z,4.900000095367432
2024-02-13T02:38:51.000Z,4.900000095367432
2024-02-13T02:39:31.000Z,4.900000095367432
2024-02-13T02:39:51.000Z,4.900000095367432
2024-02-13T02:40:11.000Z,4.900000095367432
2024-02-13T02:40:31.000Z,4.900000095367432
2024-02-13T02:40:50.000Z,4.900000095367432
2024-02-13T02:41:11.000Z,4.900000095367432
2024-02-13T02:41:30.000Z,4.900000095367432
2024-02-13T02:41:50.000Z,4.900000095367432
2024-02-13T02:42:10.000Z,4.900000095367432
2024-02-13T02:42:30.000Z,4.900000095367432
2024-02-13T02:42:50.000Z,4.900000095367432
2024-02-13T02:43:11.000Z,5.0
2024-02-13T02:43:30.000Z,5.0
2024-02-13T02:43:50.000Z,5.0
2024-02-13T02:44:10.000Z,5.0
2024-02-13T02:44:30.000Z,5.0
2024-02-13T02:44:51.000Z,5.0
2024-02-13T02:45:11.000Z,5.0
2024-02-13T02:45:31.000Z,5.0
2024-02-13T02:45:51.000Z,5.0
2024-02-13T02:46:11.000Z,5.0
2024-02-13T02:46:31.000Z,5.0
2024-02-13T02:46:51.000Z,5.0
2024-02-13T02:47:11.000Z,5.0
2024-02-13T02:47:30.000Z,5.0
2024-02-13T02:47:50.000Z,5.0
2024-02-13T02:48:11.000Z,5.0
2024-02-13T02:48:30.000Z,5.0
2024-02-13T02:48:50.000Z,5.0
2024-02-13T02:49:11.000Z,5.0
2024-02-13T02:49:30.000Z,5.0
2024-02-13T02:49:50.000Z,5.0
2024-02-13T02:50:10.000Z,5.0
2024-02-13T02:50:30.000Z,5.0
2024-02-13T02:50:50.000Z,5.0
2024-02-13T02:51:11.000Z,5.0
2024-02-13T02:51:31.000Z,5.0
2024-02-13T02:51:51.000Z,5.0
2024-02-13T02:52:11.000Z,5.0
2024-02-13T02:52:31.000Z,5.0
2024-02-13T02:52:51.000Z,5.0
2024-02-13T02:53:11.000Z,5.0
2024-02-13T02:53:30.000Z,5.099999904632568
2024-02-13T02:53:50.000Z,5.0
2024-02-13T02:54:11.000Z,5.099999904632568
2024-02-13T02:54:30.000Z,5.099999904632568
2024-02-13T02:54:50.000Z,5.099999904632568
2024-02-13T02:55:11.000Z,5.099999904632568
2024-02-13T02:55:30.000Z,5.099999904632568
2024-02-13T02:55:50.000Z,5.099999904632568
2024-02-13T02:56:10.000Z,5.099999904632568
2024-02-13T02:56:30.000Z,5.099999904632568
2024-02-13T02:56:50.000Z,5.099999904632568
2024-02-13T02:57:10.000Z,5.099999904632568
2024-02-13T02:57:31.000Z,5.099999904632568
2024-02-13T02:57:51.000Z,5.099999904632568
2024-02-13T02:58:11.000Z,5.099999904632568
2024-02-13T02:58:31.000Z,5.099999904632568
2024-02-13T02:58:51.000Z,5.099999904632568
2024-02-13T02:59:11.000Z,5.099999904632568
2024-02-13T02:59:31.000Z,5.199999809265137
2024-02-13T02:59:50.000Z,5.199999809265137
2024-02-13T03:00:11.000Z,5.199999809265137
2024-02-13T03:00:30.000Z,5.199999809265137
2024-02-13T03:00:50.000Z,5.099999904632568
2024-02-13T03:01:11.000Z,5.199999809265137
2024-02-13T03:01:30.000Z,5.199999809265137
2024-02-13T03:01:50.000Z,5.199999809265137
2024-02-13T03:02:10.000Z,5.199999809265137
2024-02-13T03:02:30.000Z,5.199999809265137
2024-02-13T03:02:50.000Z,5.199999809265137
2024-02-13T03:03:10.000Z,5.199999809265137
2024-02-13T03:03:30.000Z,5.199999809265137
2024-02-13T03:03:51.000Z,5.199999809265137
2024-02-13T03:04:12.000Z,5.199999809265137
2024-02-13T03:04:31.000Z,5.199999809265137
2024-02-13T03:04:51.000Z,5.199999809265137
2024-02-13T03:05:11.000Z,5.199999809265137
2024-02-13T03:05:31.000Z,5.199999809265137
2024-02-13T03:05:51.000Z,5.199999809265137
2024-02-13T03:06:11.000Z,5.199999809265137
2024-02-13T03:06:30.000Z,5.199999809265137
2024-02-13T03:06:50.000Z,5.099999904632568
2024-02-13T03:07:11.000Z,5.199999809265137
2024-02-13T03:07:30.000Z,5.199999809265137
2024-02-13T03:07:50.000Z,5.199999809265137
2024-02-13T03:08:11.000Z,5.099999904632568
2024-02-13T03:08:30.000Z,5.199999809265137
2024-02-13T03:08:50.000Z,5.199999809265137
2024-02-13T03:09:10.000Z,5.199999809265137
2024-02-13T03:09:30.000Z,5.099999904632568
2024-02-13T03:09:50.000Z,5.099999904632568
2024-02-13T03:10:11.000Z,5.199999809265137
2024-02-13T03:10:31.000Z,5.199999809265137
2024-02-13T03:10:51.000Z,5.199999809265137
2024-02-13T03:11:31.000Z,5.099999904632568
2024-02-13T03:11:51.000Z,5.199999809265137
2024-02-13T03:12:11.000Z,5.099999904632568
2024-02-13T03:12:30.000Z,5.099999904632568
2024-02-13T03:12:50.000Z,5.099999904632568
2024-02-13T03:13:11.000Z,5.099999904632568
2024-02-13T03:13:30.000Z,5.099999904632568
2024-02-13T03:13:50.000Z,5.099999904632568
2024-02-13T03:14:11.000Z,5.099999904632568
2024-02-13T03:14:30.000Z,5.099999904632568
2024-02-13T03:14:50.000Z,5.099999904632568
2024-02-13T03:15:10.000Z,5.099999904632568
2024-02-13T03:15:30.000Z,5.099999904632568
2024-02-13T03:15:50.000Z,5.099999904632568
2024-02-13T03:16:10.000Z,5.099999904632568
2024-02-13T03:16:31.000Z,5.099999904632568
2024-02-13T03:16:51.000Z,5.099999904632568
2024-02-13T03:17:11.000Z,5.099999904632568
2024-02-13T03:17:31.000Z,5.099999904632568
2024-02-13T03:17:51.000Z,5.099999904632568
2024-02-13T03:18:12.000Z,5.199999809265137
2024-02-13T03:18:31.000Z,5.099999904632568
2024-02-13T03:18:50.000Z,5.099999904632568
2024-02-13T03:19:30.000Z,5.199999809265137
2024-02-13T03:19:50.000Z,5.199999809265137
2024-02-13T03:20:12.000Z,5.199999809265137
2024-02-13T03:20:30.000Z,5.199999809265137
2024-02-13T03:20:50.000Z,5.199999809265137
2024-02-13T03:21:30.000Z,5.199999809265137
2024-02-13T03:21:50.000Z,5.199999809265137
2024-02-13T03:22:10.000Z,5.199999809265137
2024-02-13T03:22:30.000Z,5.199999809265137
2024-02-13T03:22:51.000Z,5.199999809265137
2024-02-13T03:23:11.000Z,5.199999809265137
2024-02-13T03:23:31.000Z,5.199999809265137
2024-02-13T03:23:51.000Z,5.099999904632568
2024-02-13T03:24:11.000Z,5.199999809265137